Time;durP1;ratioP1;P1;durP2;ratioP2;P2;SDS_P1;SDS_P2;PMS_P1;PMS_P2;Temp;Humidity;BMP_temperature;BMP_pressure;BME280_temperature;BME280_humidity;BME280_pressure;Samples;Min_cycle;Max_cycle;Signal;HPM_P1;HPM_P2
2022/03/23 00:02:14;;;;;;;26.50;15.08;;;;;;;3.15;55.74;102182.19;1770779;80;21440;-53
2022/03/23 00:04:42;;;;;;;24.60;14.55;;;;;;;3.15;55.43;102179.59;1757492;79;21109;-54
2022/03/23 00:07:10;;;;;;;22.85;14.90;;;;;;;3.13;55.46;102180.92;1750827;81;21121;-54
2022/03/23 00:09:37;;;;;;;26.68;14.95;;;;;;;3.15;55.54;102181.73;1749765;80;21927;-54
2022/03/23 00:12:07;;;;;;;22.40;14.03;;;;;;;3.15;55.54;102183.48;1752922;80;21003;-55
2022/03/23 00:14:35;;;;;;;23.02;13.85;;;;;;;3.13;55.56;102186.12;1741839;80;21047;-55
2022/03/23 00:17:05;;;;;;;24.37;13.95;;;;;;;3.09;55.71;102177.98;1752219;80;21030;-54
2022/03/23 00:19:32;;;;;;;26.50;16.12;;;;;;;3.07;56.35;102176.28;1770790;80;21114;-55
2022/03/23 00:22:00;;;;;;;22.87;14.43;;;;;;;3.07;56.87;102173.23;1751518;81;21233;-55
2022/03/23 00:24:28;;;;;;;26.80;15.85;;;;;;;3.06;57.10;102173.25;1747790;80;21129;-54
2022/03/23 00:26:55;;;;;;;26.50;16.07;;;;;;;3.06;57.25;102172.84;1739699;81;21643;-55
2022/03/23 00:29:22;;;;;;;23.52;14.50;;;;;;;3.04;57.31;102170.68;1744850;81;21109;-54
2022/03/23 00:31:49;;;;;;;32.03;16.02;;;;;;;3.01;57.36;102167.29;1750336;80;21431;-55
2022/03/23 00:34:16;;;;;;;24.90;15.45;;;;;;;2.97;57.25;102167.34;1750964;80;21169;-54
2022/03/23 00:36:43;;;;;;;24.40;17.12;;;;;;;2.95;57.21;102167.83;1741283;81;21074;-54
2022/03/23 00:39:10;;;;;;;25.27;16.97;;;;;;;2.94;57.23;102163.95;1751272;80;21086;-54
2022/03/23 00:41:37;;;;;;;32.78;17.42;;;;;;;2.92;57.26;102158.78;1744240;80;21085;-55
2022/03/23 00:44:07;;;;;;;28.00;17.77;;;;;;;2.91;57.39;102161.44;1748333;80;21140;-55
2022/03/23 00:46:34;;;;;;;31.42;18.98;;;;;;;2.89;57.88;102154.08;1751886;81;21838;-54
2022/03/23 00:49:01;;;;;;;30.77;18.75;;;;;;;2.90;58.38;102150.61;1749549;81;21573;-54
2022/03/23 00:51:28;;;;;;;30.92;18.60;;;;;;;2.89;58.68;102151.48;1752701;80;21090;-55
2022/03/23 00:53:57;;;;;;;28.67;19.35;;;;;;;2.85;58.68;102144.64;1749333;81;21060;-54
2022/03/23 00:56:24;;;;;;;28.67;18.55;;;;;;;2.84;58.51;102149.42;1751893;80;21553;-54
2022/03/23 00:58:52;;;;;;;31.02;20.95;;;;;;;2.81;58.29;102144.27;1751978;81;21221;-54
2022/03/23 01:01:19;;;;;;;31.02;20.70;;;;;;;2.76;58.45;102151.73;1749150;80;21423;-55
2022/03/23 01:03:48;;;;;;;34.73;21.15;;;;;;;2.74;58.80;102150.91;1752830;80;22317;-55
2022/03/23 01:06:17;;;;;;;33.50;21.00;;;;;;;2.71;58.92;102152.27;1749191;80;21051;-54
2022/03/23 01:08:45;;;;;;;36.77;21.97;;;;;;;2.72;58.88;102150.09;1747830;81;21063;-54
2022/03/23 01:11:14;;;;;;;33.40;20.92;;;;;;;2.69;58.96;102141.05;1747315;80;21117;-55
2022/03/23 01:13:42;;;;;;;37.10;20.50;;;;;;;2.69;59.17;102144.95;1753022;81;21118;-54
2022/03/23 01:16:12;;;;;;;28.98;19.73;;;;;;;2.66;59.22;102143.70;1751453;81;21102;-54
2022/03/23 01:18:40;;;;;;;39.38;22.55;;;;;;;2.62;59.17;102134.68;1752665;81;22248;-54
2022/03/23 01:21:10;;;;;;;36.68;21.82;;;;;;;2.55;59.27;102137.38;1749765;80;21079;-55
2022/03/23 01:23:39;;;;;;;36.58;23.02;;;;;;;2.56;59.78;102133.91;1750044;80;21384;-55
2022/03/23 01:26:07;;;;;;;36.33;20.60;;;;;;;2.56;60.11;102129.16;1753199;80;21073;-55
2022/03/23 01:28:35;;;;;;;36.53;22.98;;;;;;;2.56;60.20;102127.41;1753367;81;21102;-54
2022/03/23 01:31:03;;;;;;;37.30;23.20;;;;;;;2.58;60.27;102122.19;1748955;81;20996;-54
2022/03/23 01:33:32;;;;;;;38.00;21.65;;;;;;;2.57;60.07;102121.34;1746171;81;21109;-54
2022/03/23 01:36:00;;;;;;;31.12;19.25;;;;;;;2.57;59.82;102124.36;1745026;80;21675;-55
2022/03/23 01:38:27;;;;;;;33.18;20.30;;;;;;;2.53;59.78;102123.56;1739787;82;21054;-54
2022/03/23 01:40:54;;;;;;;27.22;18.02;;;;;;;2.53;59.77;102121.42;1722273;81;21515;-55
2022/03/23 01:43:22;;;;;;;28.70;18.10;;;;;;;2.50;59.75;102119.72;1731747;82;21110;-55
2022/03/23 01:45:49;;;;;;;26.25;16.60;;;;;;;2.50;59.71;102113.67;1734356;81;21506;-54
2022/03/23 01:48:17;;;;;;;27.35;15.18;;;;;;;2.50;59.52;102115.82;1725600;80;21117;-55
2022/03/23 01:50:45;;;;;;;26.60;17.10;;;;;;;2.53;59.60;102113.62;1747184;80;21043;-55
2022/03/23 01:53:12;;;;;;;27.67;17.65;;;;;;;2.55;59.95;102111.39;1742061;82;21099;-55
2022/03/23 01:55:40;;;;;;;29.50;17.40;;;;;;;2.59;60.30;102116.12;1740350;81;21514;-55
2022/03/23 01:58:08;;;;;;;27.77;17.05;;;;;;;2.60;60.16;102117.36;1720917;81;21067;-54
2022/03/23 02:00:37;;;;;;;25.05;16.23;;;;;;;2.59;60.17;102113.06;1740405;80;21245;-54
2022/03/23 02:03:04;;;;;;;29.95;15.40;;;;;;;2.60;59.99;102115.21;1742655;80;21047;-54
2022/03/23 02:05:34;;;;;;;26.30;15.63;;;;;;;2.57;59.83;102112.67;1745794;80;21018;-54
2022/03/23 02:08:05;;;;;;;27.87;15.72;;;;;;;2.54;59.79;102111.00;1745681;80;20983;-53
2022/03/23 02:10:33;;;;;;;24.07;14.30;;;;;;;2.53;59.69;102105.83;1729067;80;21114;-53
2022/03/23 02:13:04;;;;;;;25.15;14.68;;;;;;;2.51;59.59;102102.41;1737084;81;21636;-54
2022/03/23 02:15:32;;;;;;;26.02;16.25;;;;;;;2.47;59.56;102099.44;1732921;80;21056;-54
2022/03/23 02:18:00;;;;;;;37.50;16.25;;;;;;;2.47;59.74;102092.52;1738872;81;21098;-54
2022/03/23 02:20:28;;;;;;;24.67;15.90;;;;;;;2.49;59.84;102094.64;1735160;82;21103;-54
2022/03/23 02:22:56;;;;;;;24.27;15.03;;;;;;;2.53;59.85;102092.38;1739722;81;21502;-54
2022/03/23 02:25:28;;;;;;;27.10;14.47;;;;;;;2.58;59.65;102096.20;1741992;80;21927;-54
2022/03/23 02:27:55;;;;;;;24.30;13.45;;;;;;;2.58;59.43;102093.60;1740257;80;21083;-54
2022/03/23 02:30:22;;;;;;;25.15;14.00;;;;;;;2.62;59.35;102095.70;1741222;80;21605;-54
2022/03/23 02:32:49;;;;;;;24.30;13.83;;;;;;;2.60;59.31;102095.27;1738652;81;21032;-54
2022/03/23 02:35:17;;;;;;;18.60;12.75;;;;;;;2.63;59.20;102093.06;1737330;80;21117;-54
2022/03/23 02:37:45;;;;;;;21.73;12.98;;;;;;;2.62;59.09;102104.34;1737367;82;21141;-54
2022/03/23 02:40:12;;;;;;;23.18;13.50;;;;;;;2.61;58.92;102096.15;1739832;80;21709;-54
2022/03/23 02:42:39;;;;;;;21.52;12.20;;;;;;;2.57;58.74;102088.86;1736859;82;21055;-54
2022/03/23 02:45:10;;;;;;;23.85;13.98;;;;;;;2.56;58.85;102092.78;1732879;80;21074;-55
2022/03/23 02:47:37;;;;;;;21.90;13.05;;;;;;;2.55;58.85;102085.41;1735078;82;21055;-54
2022/03/23 02:50:06;;;;;;;22.13;13.70;;;;;;;2.57;58.88;102080.19;1731539;82;21144;-54
2022/03/23 02:52:33;;;;;;;24.98;13.98;;;;;;;2.57;58.86;102080.19;1735134;82;21149;-54
2022/03/23 03:03:46;;;;;;;26.62;13.15;;;;;;;2.46;59.58;102073.06;1735185;82;21249;-54
2022/03/23 03:06:13;;;;;;;24.47;12.15;;;;;;;2.41;60.01;102075.28;1735084;80;21126;-55
2022/03/23 03:08:45;;;;;;;22.77;12.50;;;;;;;2.41;60.12;102068.79;1739842;82;21000;-54
2022/03/23 03:11:13;;;;;;;21.12;11.88;;;;;;;2.38;60.42;102074.03;1739631;80;21624;-54
2022/03/23 03:13:41;;;;;;;23.12;12.47;;;;;;;2.39;60.58;102069.72;1735925;80;21063;-54
2022/03/23 03:16:10;;;;;;;21.25;11.78;;;;;;;2.37;60.62;102067.15;1739879;82;21169;-54
2022/03/23 03:18:39;;;;;;;21.12;12.70;;;;;;;2.37;60.59;102070.16;1738412;80;21071;-55
2022/03/23 03:21:08;;;;;;;21.87;12.28;;;;;;;2.36;60.55;102064.58;1741748;81;21073;-54
2022/03/23 03:23:37;;;;;;;20.15;11.93;;;;;;;2.35;60.45;102068.89;1741053;80;21639;-54
2022/03/23 03:26:06;;;;;;;25.48;11.80;;;;;;;2.33;60.41;102067.23;1744402;80;21067;-54
2022/03/23 03:28:37;;;;;;;20.05;11.22;;;;;;;2.30;60.35;102067.28;1755014;80;21134;-55
2022/03/23 03:31:07;;;;;;;20.10;11.08;;;;;;;2.27;60.11;102063.02;1750558;80;21033;-54
2022/03/23 03:33:34;;;;;;;20.95;11.08;;;;;;;2.25;60.00;102058.72;1748319;81;21501;-54
2022/03/23 03:36:01;;;;;;;22.25;11.43;;;;;;;2.27;59.95;102060.41;1752793;80;21113;-54
2022/03/23 03:38:30;;;;;;;17.87;10.40;;;;;;;2.26;59.91;102060.44;1774410;80;21558;-54
2022/03/23 03:40:58;;;;;;;20.10;10.58;;;;;;;2.25;59.92;102056.97;1727108;80;21270;-55
2022/03/23 03:43:25;;;;;;;18.70;12.73;;;;;;;2.23;60.03;102062.19;1761784;80;21105;-54
2022/03/23 03:45:54;;;;;;;19.32;10.40;;;;;;;2.20;60.28;102053.59;1733946;80;21715;-54
2022/03/23 03:48:21;;;;;;;17.98;11.28;;;;;;;2.22;60.55;102051.85;1746143;82;21051;-54
2022/03/23 03:50:48;;;;;;;21.30;10.68;;;;;;;2.25;60.84;102047.88;1743666;80;21082;-54
2022/03/23 03:53:16;;;;;;;17.35;10.28;;;;;;;2.26;61.12;102044.86;1746824;80;21310;-54
2022/03/23 03:55:44;;;;;;;21.45;11.08;;;;;;;2.28;61.30;102044.38;1739721;80;21052;-54
2022/03/23 03:58:12;;;;;;;18.60;10.03;;;;;;;2.30;61.34;102047.80;1738455;82;20980;-56
2022/03/23 04:00:41;;;;;;;20.80;10.50;;;;;;;2.31;61.45;102046.92;1742946;80;21066;-54
2022/03/23 04:03:09;;;;;;;16.67;10.25;;;;;;;2.31;61.36;102046.47;1747255;82;21057;-54
2022/03/23 04:05:36;;;;;;;17.25;11.05;;;;;;;2.30;61.37;102038.25;1746346;80;21455;-54
2022/03/23 04:08:04;;;;;;;17.02;10.95;;;;;;;2.30;61.29;102042.59;1737696;80;21098;-54
2022/03/23 04:10:33;;;;;;;19.17;11.30;;;;;;;2.27;61.28;102047.84;1739633;80;21639;-54
2022/03/23 04:13:00;;;;;;;21.82;11.05;;;;;;;2.25;61.34;102037.94;1746351;80;20984;-54
2022/03/23 04:15:27;;;;;;;20.80;12.23;;;;;;;2.20;61.48;102036.72;1707215;82;21160;-53
2022/03/23 04:17:54;;;;;;;23.47;12.82;;;;;;;2.19;61.56;102035.87;1746612;81;21588;-54
2022/03/23 04:20:23;;;;;;;19.77;12.33;;;;;;;2.20;61.69;102038.02;1741853;80;21094;-54
2022/03/23 04:22:50;;;;;;;22.22;11.73;;;;;;;2.20;61.44;102036.30;1744664;80;21023;-54
2022/03/23 04:25:18;;;;;;;26.40;12.75;;;;;;;2.18;61.31;102038.48;1742490;80;21529;-55
2022/03/23 04:27:50;;;;;;;26.07;14.23;;;;;;;2.17;61.22;102037.64;1733867;82;21650;-54
2022/03/23 04:30:21;;;;;;;23.10;11.38;;;;;;;2.17;61.19;102041.54;1741604;80;21885;-54
2022/03/23 04:32:50;;;;;;;21.50;11.83;;;;;;;2.18;61.23;102042.39;1744721;82;21648;-54
2022/03/23 04:35:18;;;;;;;22.30;13.43;;;;;;;2.17;61.26;102039.36;1745921;80;21458;-54
2022/03/23 04:37:47;;;;;;;23.80;13.75;;;;;;;2.17;61.27;102036.34;1745281;81;21047;-54
2022/03/23 04:40:15;;;;;;;28.02;14.18;;;;;;;2.15;61.45;102042.02;1751056;81;21079;-55
2022/03/23 04:42:43;;;;;;;30.30;14.63;;;;;;;2.15;61.70;102035.95;1752396;80;23055;-55
2022/03/23 04:45:11;;;;;;;29.35;15.08;;;;;;;2.17;61.86;102040.66;1751168;80;21073;-54
2022/03/23 04:47:39;;;;;;;27.48;14.75;;;;;;;2.19;61.94;102040.22;1751046;80;21004;-55
2022/03/23 04:50:09;;;;;;;25.27;14.65;;;;;;;2.23;62.00;102040.11;1749050;80;21748;-54
2022/03/23 04:52:40;;;;;;;22.90;14.68;;;;;;;2.32;61.92;102047.31;1751931;80;21093;-54
2022/03/23 04:55:10;;;;;;;21.35;13.90;;;;;;;2.34;61.80;102039.92;1749318;81;21098;-54
2022/03/23 04:57:37;;;;;;;24.77;14.78;;;;;;;2.38;61.61;102040.27;1747893;80;22235;-53
2022/03/23 05:00:10;;;;;;;25.92;14.28;;;;;;;2.44;61.53;102035.41;1746554;81;21050;-54
2022/03/23 05:02:36;;;;;;;18.32;12.00;;;;;;;2.51;61.55;102047.84;1751319;80;21346;-54
2022/03/23 05:05:06;;;;;;;25.17;14.47;;;;;;;2.62;61.48;102041.96;1748962;81;21580;-54
2022/03/23 05:07:34;;;;;;;23.18;13.85;;;;;;;2.66;61.31;102043.63;1750548;81;21203;-54
2022/03/23 05:10:02;;;;;;;27.27;15.13;;;;;;;2.73;61.41;102045.20;1747130;80;21106;-54
2022/03/23 05:12:31;;;;;;;26.68;14.87;;;;;;;2.79;61.47;102047.69;1747052;80;21019;-54
2022/03/23 05:14:58;;;;;;;22.77;15.00;;;;;;;2.82;61.31;102038.11;1746534;80;21376;-54
2022/03/23 05:17:26;;;;;;;32.00;14.98;;;;;;;2.87;61.33;102038.41;1751630;80;21493;-54
2022/03/23 05:19:54;;;;;;;25.02;15.35;;;;;;;2.94;60.99;102042.61;1751782;81;21323;-55
2022/03/23 05:22:22;;;;;;;33.53;16.85;;;;;;;3.01;60.62;102038.56;1743958;80;21030;-54
2022/03/23 05:24:50;;;;;;;28.38;14.80;;;;;;;3.05;60.40;102037.16;1749750;80;21026;-54
2022/03/23 05:27:18;;;;;;;25.15;15.15;;;;;;;3.12;60.46;102034.83;1741673;80;20999;-57
2022/03/23 05:29:46;;;;;;;25.37;14.35;;;;;;;3.19;60.48;102036.84;1752133;80;20998;-54
2022/03/23 05:32:16;;;;;;;25.02;14.38;;;;;;;3.30;60.31;102036.63;1751249;80;21534;-54
2022/03/23 05:34:43;;;;;;;21.95;13.58;;;;;;;3.38;60.01;102032.52;1747478;81;21557;-54
2022/03/23 05:37:11;;;;;;;24.05;12.93;;;;;;;3.46;59.70;102031.47;1748413;80;21553;-54
2022/03/23 05:39:40;;;;;;;25.72;12.85;;;;;;;3.55;59.32;102030.39;1749021;81;21513;-54
2022/03/23 05:42:08;;;;;;;25.82;13.70;;;;;;;3.65;59.10;102021.91;1744144;80;21067;-54
2022/03/23 05:44:35;;;;;;;26.55;12.95;;;;;;;3.75;58.73;102029.91;1748899;80;21198;-54
2022/03/23 05:47:03;;;;;;;26.75;13.32;;;;;;;3.87;58.37;102030.03;1737272;80;21486;-54
2022/03/23 05:49:32;;;;;;;23.75;12.50;;;;;;;3.99;57.90;102035.38;1728502;80;21125;-54
2022/03/23 05:51:59;;;;;;;24.82;12.70;;;;;;;4.08;57.61;102028.18;1728985;80;21078;-54
2022/03/23 05:54:26;;;;;;;26.97;13.38;;;;;;;4.16;57.39;102025.35;1744703;81;21109;-54
2022/03/23 05:56:53;;;;;;;24.25;12.30;;;;;;;4.28;57.14;102025.01;1748638;80;21082;-54
2022/03/23 05:59:21;;;;;;;27.10;13.35;;;;;;;4.39;57.03;102021.28;1754190;80;21039;-54
2022/03/23 06:01:48;;;;;;;25.35;12.05;;;;;;;4.50;56.54;102024.88;1754540;80;21086;-55
2022/03/23 06:04:15;;;;;;;18.12;10.08;;;;;;;4.60;56.21;102019.34;1742927;81;21097;-54
2022/03/23 06:06:42;;;;;;;21.05;9.58;;;;;;;4.73;55.80;102020.31;1738667;80;21129;-55
2022/03/23 06:09:12;;;;;;;16.25;7.87;;;;;;;4.86;54.79;102018.17;1743609;80;22131;-54
2022/03/23 06:11:41;;;;;;;17.30;7.90;;;;;;;4.97;53.90;102012.19;1762752;80;21027;-54
2022/03/23 06:14:08;;;;;;;17.12;6.45;;;;;;;5.08;53.09;102014.03;1742868;80;21434;-54
2022/03/23 06:16:37;;;;;;;15.53;7.87;;;;;;;5.21;52.01;102006.65;1749148;80;21611;-54
2022/03/23 06:19:04;;;;;;;14.60;7.83;;;;;;;5.33;51.08;102010.20;1748170;81;21007;-54
2022/03/23 06:21:31;;;;;;;13.70;7.45;;;;;;;5.44;50.65;102008.99;1750526;81;21130;-53
2022/03/23 06:23:59;;;;;;;13.85;7.25;;;;;;;5.56;50.41;102004.23;1755140;80;20999;-54
2022/03/23 06:26:27;;;;;;;16.15;8.30;;;;;;;5.67;49.53;102005.63;1750780;80;21106;-54
2022/03/23 06:28:56;;;;;;;16.62;8.18;;;;;;;5.77;48.95;101998.73;1748592;80;21050;-53
2022/03/23 06:31:23;;;;;;;14.55;8.60;;;;;;;5.88;48.29;102003.57;1747734;80;21493;-53
2022/03/23 06:33:51;;;;;;;16.85;8.30;;;;;;;5.98;47.66;101995.00;1748613;80;21348;-54
2022/03/23 06:36:18;;;;;;;15.20;8.38;;;;;;;6.09;47.24;102003.78;1752786;80;21371;-54
2022/03/23 06:38:47;;;;;;;14.55;8.93;;;;;;;6.19;46.83;101997.32;1722635;81;21121;-54
2022/03/23 06:41:14;;;;;;;19.35;8.93;;;;;;;6.28;46.91;101995.67;1738500;80;22433;-54
2022/03/23 06:43:41;;;;;;;16.90;9.18;;;;;;;6.39;46.95;101994.42;1750248;80;21003;-54
2022/03/23 06:46:09;;;;;;;17.55;9.48;;;;;;;6.51;46.46;101997.91;1750604;80;21055;-54
2022/03/23 06:48:37;;;;;;;17.40;10.40;;;;;;;6.62;45.89;101992.27;1717335;82;21503;-54
2022/03/23 06:51:04;;;;;;;19.00;10.55;;;;;;;6.73;45.70;101990.10;1715905;82;21145;-54
2022/03/23 06:53:32;;;;;;;18.42;9.90;;;;;;;6.81;45.67;101986.74;1690437;84;21070;-54
2022/03/23 06:55:59;;;;;;;17.27;10.50;;;;;;;6.94;45.52;101986.25;1684558;83;21478;-54
2022/03/23 06:58:26;;;;;;;24.50;12.35;;;;;;;7.04;45.46;101984.98;1688931;84;21129;-54
2022/03/23 07:00:54;;;;;;;25.10;13.45;;;;;;;7.14;45.20;101986.78;1699516;83;21079;-54
2022/03/23 07:03:22;;;;;;;21.85;13.05;;;;;;;7.24;44.68;101979.78;1698025;83;21082;-53
2022/03/23 07:05:49;;;;;;;23.20;12.18;;;;;;;7.36;44.39;101984.14;1699626;83;21117;-54
2022/03/23 07:11:02;;;;;;;22.07;13.85;;;;;;;7.56;44.09;101977.61;1702692;83;21165;-54
2022/03/23 07:13:30;;;;;;;20.77;12.88;;;;;;;7.66;44.02;101975.93;1704036;83;21034;-54
2022/03/23 07:15:57;;;;;;;20.02;12.82;;;;;;;7.75;44.04;101971.16;1700514;83;21122;-54
2022/03/23 07:18:27;;;;;;;22.70;13.43;;;;;;;7.87;43.91;101972.40;1701869;83;21055;-54
2022/03/23 07:20:54;;;;;;;24.02;13.85;;;;;;;8.00;43.63;101972.70;1700451;83;21122;-54
2022/03/23 07:23:21;;;;;;;22.13;13.50;;;;;;;8.10;43.33;101972.71;1702008;83;21609;-54
2022/03/23 07:25:48;;;;;;;25.37;13.40;;;;;;;8.20;42.90;101970.50;1701877;83;20992;-54
2022/03/23 07:28:17;;;;;;;27.17;13.05;;;;;;;8.29;42.79;101971.42;1701866;83;21220;-54
2022/03/23 07:30:44;;;;;;;24.67;14.25;;;;;;;8.41;42.73;101973.95;1697203;83;21499;-54
2022/03/23 07:33:11;;;;;;;17.48;11.78;;;;;;;8.50;42.42;101964.83;1684880;83;21070;-54
2022/03/23 07:35:38;;;;;;;26.77;15.13;;;;;;;8.57;42.12;101964.09;1681731;83;21164;-54
2022/03/23 07:38:06;;;;;;;24.15;13.95;;;;;;;8.62;42.00;101961.63;1691016;83;21091;-54
2022/03/23 07:40:36;;;;;;;26.65;14.98;;;;;;;8.70;42.04;101967.38;1680634;84;21077;-54
2022/03/23 07:43:04;;;;;;;22.77;13.65;;;;;;;8.78;42.21;101963.09;1685200;83;21094;-54
2022/03/23 07:45:32;;;;;;;21.68;14.53;;;;;;;8.92;41.86;101965.89;1697890;83;21058;-54
2022/03/23 07:47:59;;;;;;;27.07;14.78;;;;;;;9.02;41.62;101959.74;1707136;83;21203;-54
2022/03/23 07:50:27;;;;;;;24.85;14.83;;;;;;;9.15;41.39;101960.01;1712627;83;21022;-54
2022/03/23 07:52:55;;;;;;;25.57;15.53;;;;;;;9.27;41.37;101956.77;1694083;83;21659;-54
2022/03/23 07:55:22;;;;;;;25.25;14.95;;;;;;;9.40;41.05;101961.44;1697597;83;21047;-54
2022/03/23 07:57:50;;;;;;;25.92;14.13;;;;;;;9.53;40.96;101955.95;1701839;83;21097;-54
2022/03/23 08:00:17;;;;;;;25.68;14.47;;;;;;;9.65;40.74;101955.80;1709191;83;21794;-54
2022/03/23 08:02:46;;;;;;;25.15;14.73;;;;;;;9.72;40.64;101951.91;1701960;83;21031;-54
2022/03/23 08:05:13;;;;;;;21.90;13.28;;;;;;;9.78;40.50;101952.05;1697049;83;21546;-54
2022/03/23 08:07:40;;;;;;;25.57;14.58;;;;;;;9.86;40.49;101946.77;1700507;82;21121;-54
2022/03/23 08:10:09;;;;;;;24.63;15.28;;;;;;;9.95;40.32;101943.28;1701047;83;21065;-54
2022/03/23 08:12:38;;;;;;;26.48;15.72;;;;;;;10.03;39.99;101942.41;1708991;82;21050;-54
2022/03/23 08:15:07;;;;;;;25.25;15.40;;;;;;;10.10;39.76;101941.16;1685442;83;21063;-54
2022/03/23 08:17:38;;;;;;;25.52;15.53;;;;;;;10.16;39.49;101936.89;1715215;81;21115;-55
2022/03/23 08:22:54;;;;;;;23.22;16.93;;;;;;;10.29;39.52;101934.91;1744180;80;21161;-54
2022/03/23 08:25:21;;;;;;;25.05;15.78;;;;;;;10.38;39.54;101931.82;1700969;82;21260;-54
2022/03/23 08:27:49;;;;;;;27.25;16.52;;;;;;;10.47;39.35;101932.62;1737370;80;21118;-54
2022/03/23 08:30:16;;;;;;;20.08;15.38;;;;;;;10.56;39.30;101928.18;1744805;80;21087;-54
2022/03/23 08:32:45;;;;;;;29.92;18.20;;;;;;;10.66;39.11;101927.20;1738523;80;21028;-54
2022/03/23 08:35:12;;;;;;;30.30;17.30;;;;;;;10.74;38.71;101926.31;1745210;80;21047;-54
2022/03/23 08:37:40;;;;;;;28.10;17.80;;;;;;;10.82;38.66;101927.18;1739737;80;21241;-54
2022/03/23 08:40:08;;;;;;;28.70;18.02;;;;;;;10.88;38.40;101919.42;1722728;82;21122;-54
2022/03/23 08:42:36;;;;;;;28.92;16.00;;;;;;;10.97;38.07;101917.56;1736351;82;21086;-55
2022/03/23 08:45:06;;;;;;;22.98;16.20;;;;;;;11.06;37.85;101917.50;1737660;80;21035;-56
2022/03/23 08:47:34;;;;;;;22.62;16.97;;;;;;;11.15;37.45;101913.88;1745053;80;21075;-55
2022/03/23 08:50:03;;;;;;;22.87;16.52;;;;;;;11.25;37.03;101910.23;1731889;80;22262;-55
2022/03/23 08:52:31;;;;;;;23.47;16.23;;;;;;;11.33;36.72;101906.69;1734973;82;21559;-53
2022/03/23 08:54:59;;;;;;;19.48;13.60;;;;;;;11.43;36.05;101901.73;1736640;80;21059;-55
2022/03/23 08:57:26;;;;;;;23.00;15.18;;;;;;;11.55;35.26;101902.78;1735304;82;21527;-53
2022/03/23 08:59:54;;;;;;;18.15;13.05;;;;;;;11.65;34.85;101899.09;1737086;80;21079;-53
2022/03/23 09:02:21;;;;;;;19.57;13.98;;;;;;;11.75;34.54;101898.07;1740060;80;21246;-54
2022/03/23 09:04:48;;;;;;;18.57;12.07;;;;;;;11.84;34.29;101896.20;1738493;80;21542;-55
2022/03/23 09:07:15;;;;;;;20.45;12.07;;;;;;;11.94;34.32;101889.94;1739500;80;21102;-53
2022/03/23 09:09:42;;;;;;;16.45;10.60;;;;;;;12.07;34.41;101884.27;1718250;80;21138;-54
2022/03/23 09:12:11;;;;;;;17.65;11.38;;;;;;;12.22;34.10;101882.44;1735011;80;21126;-54
2022/03/23 09:14:40;;;;;;;15.25;9.73;;;;;;;12.33;33.81;101878.66;1736094;80;21116;-53
2022/03/23 09:17:08;;;;;;;17.15;9.85;;;;;;;12.42;33.68;101873.25;1741468;80;21005;-53
2022/03/23 09:19:36;;;;;;;14.83;9.35;;;;;;;12.53;33.39;101869.45;1736089;80;21688;-54
2022/03/23 09:22:03;;;;;;;15.98;9.33;;;;;;;12.63;32.88;101866.59;1737923;80;21573;-54
2022/03/23 09:24:31;;;;;;;10.28;7.00;;;;;;;12.77;33.26;101870.13;1734470;80;21096;-56
2022/03/23 09:26:58;;;;;;;15.10;7.20;;;;;;;12.95;32.73;101864.11;1725979;80;22300;-54
2022/03/23 09:29:25;;;;;;;16.77;9.05;;;;;;;13.12;32.66;101862.98;1732777;80;21051;-54
2022/03/23 09:31:52;;;;;;;16.40;9.75;;;;;;;13.26;32.50;101860.23;1729976;82;21447;-53
2022/03/23 09:34:21;;;;;;;16.75;9.50;;;;;;;13.34;32.77;101859.27;1729260;80;21511;-53
2022/03/23 09:39:34;;;;;;;16.73;9.35;;;;;;;13.51;32.74;101851.98;1735678;80;21176;-53
2022/03/23 09:42:02;;;;;;;16.45;9.00;;;;;;;13.61;32.45;101845.59;1731822;82;21503;-53
2022/03/23 09:44:29;;;;;;;19.55;10.23;;;;;;;13.71;32.30;101846.63;1737314;80;21000;-53
2022/03/23 09:46:57;;;;;;;16.05;9.85;;;;;;;13.80;32.24;101835.88;1734648;80;21061;-53
2022/03/23 09:49:25;;;;;;;20.25;10.20;;;;;;;13.90;32.17;101839.11;1740640;81;21471;-53
2022/03/23 09:53:17;;;;;;;13.68;8.68;;;;;;;14.06;31.84;101826.09;1795191;78;22775;-57
2022/03/23 09:55:45;;;;;;;18.15;9.53;;;;;;;14.07;31.67;101827.31;1756789;80;21536;-55
2022/03/23 09:58:12;;;;;;;18.75;8.33;;;;;;;14.13;31.48;101822.04;1754634;80;21108;-56
2022/03/23 10:00:42;;;;;;;14.18;8.85;;;;;;;14.16;31.29;101815.20;1751086;80;21753;-56
2022/03/23 10:03:34;;;;;;;14.05;8.70;;;;;;;14.19;31.07;101814.98;1753786;80;21031;-56
2022/03/23 10:06:40;;;;;;;14.15;8.75;;;;;;;14.24;30.81;101798.29;1757632;80;21129;-56
2022/03/23 10:09:46;;;;;;;15.28;9.30;;;;;;;14.32;30.90;101803.00;1711335;82;21071;-56
2022/03/23 10:13:09;;;;;;;15.15;9.70;;;;;;;14.41;30.67;101804.99;1696164;83;21181;-56
2022/03/23 10:16:27;;;;;;;16.73;11.18;;;;;;;14.48;30.68;101794.79;1696705;83;20998;-56
2022/03/23 10:18:59;;;;;;;18.77;11.57;;;;;;;14.55;30.46;101788.07;1705249;82;21048;-56
2022/03/23 10:21:36;;;;;;;18.95;11.90;;;;;;;14.57;30.68;101776.88;1708611;82;21493;-57
2022/03/23 10:24:09;;;;;;;21.02;11.55;;;;;;;14.62;30.58;101776.08;1717669;82;22241;-56
2022/03/23 10:26:37;;;;;;;18.10;10.18;;;;;;;14.70;30.65;101770.22;1713765;82;21188;-56
2022/03/23 10:29:04;;;;;;;15.90;9.93;;;;;;;14.81;30.21;101772.91;1712622;82;21045;-56
2022/03/23 10:31:31;;;;;;;15.98;9.75;;;;;;;14.90;29.94;101764.73;1710927;82;21571;-56
2022/03/23 10:34:13;;;;;;;16.12;9.55;;;;;;;14.96;29.71;101757.64;1709830;82;21130;-56
2022/03/23 10:36:37;;;;;;;16.73;10.78;;;;;;;15.02;29.61;101755.83;1722913;81;21034;-56
2022/03/23 10:39:06;;;;;;;16.40;10.35;;;;;;;15.08;29.64;101752.34;1674186;83;21222;-56
2022/03/23 10:41:33;;;;;;;18.70;9.95;;;;;;;15.18;29.26;101743.57;1693476;83;21375;-57
2022/03/23 10:44:01;;;;;;;16.25;10.05;;;;;;;15.28;29.15;101734.42;1701814;83;21055;-56
2022/03/23 10:46:28;;;;;;;14.13;9.55;;;;;;;15.38;29.03;101732.72;1716146;82;21089;-57
2022/03/23 10:49:02;;;;;;;17.80;10.65;;;;;;;15.52;28.91;101721.01;1713422;82;21088;-57
2022/03/23 10:51:34;;;;;;;16.97;10.35;;;;;;;15.64;28.57;101725.82;1718140;82;21193;-55
2022/03/23 10:54:23;;;;;;;17.62;9.75;;;;;;;15.71;28.91;101721.70;1702652;83;21068;-55
2022/03/23 10:56:50;;;;;;;22.65;14.25;;;;;;;15.81;28.77;101714.36;1706922;83;21110;-54
2022/03/23 10:59:23;;;;;;;16.02;10.53;;;;;;;15.91;27.57;101709.50;1691791;83;21110;-55
2022/03/23 11:02:01;;;;;;;20.40;10.63;;;;;;;15.96;27.79;101698.51;1695788;82;21038;-55
2022/03/23 11:04:31;;;;;;;15.65;9.08;;;;;;;16.02;27.67;101694.03;1696988;83;21263;-55
2022/03/23 11:07:01;;;;;;;15.30;9.50;;;;;;;16.03;27.81;101699.69;1711456;82;21078;-53
2022/03/23 11:18:17;;;;;;;26.80;15.85;;;;;;;16.31;27.38;101678.32;1732986;80;21162;-53
2022/03/23 11:20:53;;;;;;;21.25;12.82;;;;;;;16.36;26.86;101669.97;1739654;81;21027;-53
2022/03/23 11:23:30;;;;;;;23.80;16.62;;;;;;;16.42;26.96;101664.62;1747859;80;21053;-53
2022/03/23 11:26:02;;;;;;;32.33;21.62;;;;;;;16.47;27.13;101655.27;1750652;80;21126;-53
2022/03/23 11:28:34;;;;;;;38.20;24.45;;;;;;;16.51;27.08;101652.73;1748382;80;21492;-53
2022/03/23 11:31:04;;;;;;;34.30;23.27;;;;;;;16.52;26.99;101645.59;1747222;80;21616;-53
2022/03/23 11:33:35;;;;;;;32.25;21.52;;;;;;;16.57;27.47;101649.19;1750788;81;21036;-53
2022/03/23 11:36:05;;;;;;;32.30;21.82;;;;;;;16.63;27.34;101648.18;1747878;81;21016;-52
2022/03/23 11:38:33;;;;;;;39.65;26.90;;;;;;;16.71;27.08;101638.23;1748497;82;21070;-53
2022/03/23 11:41:01;;;;;;;39.48;26.95;;;;;;;16.79;27.28;101639.72;1743950;80;21040;-53
2022/03/23 11:43:36;;;;;;;45.52;30.75;;;;;;;16.85;27.07;101637.89;1750236;80;21494;-53
2022/03/23 11:46:04;;;;;;;51.10;33.23;;;;;;;16.97;26.90;101636.48;1736983;80;21083;-52
2022/03/23 11:49:07;;;;;;;61.88;39.55;;;;;;;17.04;27.21;101626.48;1750897;82;21006;-52
2022/03/23 11:52:10;;;;;;;58.95;39.27;;;;;;;17.07;26.78;101624.06;1745931;80;21047;-53
2022/03/23 11:58:01;;;;;;;56.73;37.30;;;;;;;17.16;26.90;101613.09;1738424;81;21301;-53